Time;durP1;ratioP1;P1;durP2;ratioP2;P2;SDS_P1;SDS_P2;PMS_P1;PMS_P2;Temp;Humidity;BMP_temperature;BMP_pressure;BME280_temperature;BME280_humidity;BME280_pressure;Samples;Min_cycle;Max_cycle;Signal;HPM_P1;HPM_P2
2023/04/08 00:01:02;;;;;;;19.17;13.67;;;10.30;98.40;;;;;;5003430;28;20572;-61
2023/04/08 00:03:29;;;;;;;24.97;14.73;;;10.30;98.40;;;;;;4970983;28;20493;-62
2023/04/08 00:05:56;;;;;;;24.90;11.93;;;10.10;98.50;;;;;;4975452;28;20538;-62
2023/04/08 00:08:22;;;;;;;16.87;11.77;;;10.10;98.40;;;;;;4986392;28;20491;-61
2023/04/08 00:10:49;;;;;;;19.20;12.60;;;10.00;98.60;;;;;;4947735;28;20500;-61
2023/04/08 00:13:16;;;;;;;28.00;10.93;;;10.00;99.00;;;;;;5005052;28;21029;-62
2023/04/08 00:15:42;;;;;;;21.10;13.67;;;10.00;99.00;;;;;;4991864;28;20837;-61
2023/04/08 00:18:10;;;;;;;24.20;14.73;;;10.00;98.90;;;;;;5006175;28;20519;-61
2023/04/08 00:20:37;;;;;;;28.23;12.97;;;10.10;98.70;;;;;;4977534;28;22112;-61
2023/04/08 00:23:04;;;;;;;19.00;12.20;;;10.10;98.70;;;;;;4989320;28;20499;-62
2023/04/08 00:25:31;;;;;;;19.93;13.67;;;10.10;98.50;;;;;;4996280;28;20678;-61
2023/04/08 00:27:58;;;;;;;21.23;11.10;;;10.10;98.60;;;;;;5014216;28;20537;-62
2023/04/08 00:30:26;;;;;;;19.70;12.67;;;10.10;98.50;;;;;;5002189;28;20746;-61
2023/04/08 00:32:52;;;;;;;15.53;10.63;;;10.10;98.50;;;;;;4963791;28;20482;-61
2023/04/08 00:35:21;;;;;;;19.63;10.20;;;10.10;98.40;;;;;;4996086;28;20493;-61
2023/04/08 00:37:48;;;;;;;16.30;11.53;;;10.10;98.40;;;;;;4980130;28;20763;-61
2023/04/08 00:40:15;;;;;;;15.20;10.93;;;10.10;98.40;;;;;;4995044;28;20544;-61
2023/04/08 00:42:42;;;;;;;19.77;10.53;;;10.10;98.60;;;;;;5009278;28;20556;-61
2023/04/08 00:45:10;;;;;;;19.47;13.20;;;10.10;98.60;;;;;;4993193;28;20492;-61
2023/04/08 00:47:36;;;;;;;24.00;14.13;;;10.10;98.60;;;;;;4974545;28;20485;-61
2023/04/08 00:50:03;;;;;;;18.17;11.60;;;10.10;98.80;;;;;;4981566;28;20482;-62
2023/04/08 00:52:31;;;;;;;33.13;16.93;;;10.00;98.80;;;;;;4980275;28;20581;-61
2023/04/08 00:54:58;;;;;;;26.70;13.20;;;;;;;;;;5001789;28;20480;-61
2023/04/08 00:57:25;;;;;;;22.23;13.30;;;10.10;98.80;;;;;;4996649;28;20570;-61
2023/04/08 00:59:52;;;;;;;20.37;12.87;;;10.10;98.80;;;;;;5008454;28;21088;-61
2023/04/08 01:02:26;;;;;;;18.60;11.13;;;10.10;98.70;;;;;;4985604;28;21009;-61
2023/04/08 01:04:59;;;;;;;22.30;12.33;;;10.10;98.50;;;;;;4998930;28;20490;-62
2023/04/08 01:07:29;;;;;;;24.63;14.20;;;10.10;98.40;;;;;;4986729;28;20494;-61
2023/04/08 01:10:05;;;;;;;23.80;11.33;;;10.10;98.50;;;;;;4978229;28;20482;-61
2023/04/08 01:12:33;;;;;;;31.10;17.23;;;10.10;98.40;;;;;;4998574;28;21095;-61
2023/04/08 01:15:04;;;;;;;22.43;13.83;;;10.00;98.90;;;;;;4990283;28;20486;-61
2023/04/08 01:17:32;;;;;;;30.27;15.60;;;10.00;98.90;;;;;;4988081;28;20485;-61
2023/04/08 01:20:00;;;;;;;21.70;12.50;;;9.90;99.40;;;;;;4988831;28;21046;-61
2023/04/08 01:22:40;;;;;;;29.07;12.30;;;9.90;99.20;;;;;;4993493;28;20497;-62
2023/04/08 01:25:16;;;;;;;25.57;12.97;;;9.90;99.20;;;;;;4981680;28;20477;-61
2023/04/08 01:27:45;;;;;;;25.53;12.47;;;9.80;99.30;;;;;;4989354;28;20604;-62
2023/04/08 01:30:15;;;;;;;28.37;15.03;;;9.80;99.20;;;;;;4984904;28;20500;-61
2023/04/08 01:32:43;;;;;;;19.10;11.30;;;9.80;99.20;;;;;;4979692;28;20579;-61
2023/04/08 01:35:11;;;;;;;28.43;12.87;;;9.80;99.40;;;;;;4996708;28;21052;-61
2023/04/08 01:37:39;;;;;;;29.13;15.80;;;9.80;99.60;;;;;;4989693;28;20850;-61
2023/04/08 01:40:08;;;;;;;23.07;12.83;;;;;;;;;;4991437;28;20482;-61
2023/04/08 01:42:36;;;;;;;27.50;14.20;;;9.80;99.70;;;;;;4984385;28;20485;-61
2023/04/08 01:45:06;;;;;;;27.33;15.10;;;9.80;99.70;;;;;;4988081;28;20873;-61
2023/04/08 01:47:34;;;;;;;39.53;18.10;;;9.90;99.60;;;;;;4969535;28;20496;-62
2023/04/08 01:50:02;;;;;;;24.40;13.87;;;9.90;99.50;;;;;;4985508;28;20897;-62
2023/04/08 01:52:30;;;;;;;28.17;15.30;;;9.90;99.60;;;;;;4989503;28;20498;-61
2023/04/08 01:54:57;;;;;;;26.67;13.07;;;9.90;99.60;;;;;;4978001;28;20561;-61
2023/04/08 01:57:24;;;;;;;20.07;13.40;;;9.90;99.60;;;;;;4984810;28;20963;-62
2023/04/08 01:59:53;;;;;;;24.73;14.17;;;10.00;99.00;;;;;;4967078;28;20577;-61
2023/04/08 02:02:24;;;;;;;26.63;10.63;;;10.00;99.00;;;;;;4999476;28;20838;-61
2023/04/08 02:04:51;;;;;;;15.67;10.53;;;10.00;98.90;;;;;;4996906;28;20476;-61
2023/04/08 02:07:18;;;;;;;19.43;11.70;;;10.00;98.80;;;;;;5003597;28;20482;-61
2023/04/08 02:09:45;;;;;;;21.00;9.97;;;9.90;99.40;;;;;;4977297;28;20480;-61
2023/04/08 02:12:12;;;;;;;19.60;12.83;;;9.80;99.60;;;;;;5000567;28;20480;-61
2023/04/08 02:14:39;;;;;;;26.93;15.53;;;9.70;99.90;;;;;;4991443;28;20814;-61
2023/04/08 02:17:10;;;;;;;25.70;12.67;;;9.60;99.90;;;;;;4992287;28;20896;-60
2023/04/08 02:19:46;;;;;;;33.60;18.13;;;9.50;99.90;;;;;;4979030;28;20837;-61
2023/04/08 02:22:19;;;;;;;23.80;13.33;;;9.40;99.90;;;;;;4980419;28;20500;-61
2023/04/08 02:24:46;;;;;;;22.80;13.07;;;9.40;99.90;;;;;;5000513;28;20879;-61
2023/04/08 02:27:13;;;;;;;21.27;12.33;;;9.40;99.90;;;;;;4981726;28;20496;-61
2023/04/08 02:29:41;;;;;;;29.53;14.47;;;9.50;99.90;;;;;;4998004;28;20481;-62
2023/04/08 02:32:10;;;;;;;20.93;11.00;;;9.50;99.90;;;;;;4994258;28;20482;-61
2023/04/08 02:34:40;;;;;;;24.90;15.60;;;9.50;99.90;;;;;;4992104;28;20868;-61
2023/04/08 02:37:08;;;;;;;21.23;10.33;;;9.50;99.90;;;;;;4989294;28;20474;-60
2023/04/08 02:39:35;;;;;;;25.97;16.30;;;9.50;99.90;;;;;;4988018;28;20638;-61
2023/04/08 02:42:01;;;;;;;16.67;10.60;;;9.40;99.90;;;;;;5008418;28;20500;-61
2023/04/08 02:44:28;;;;;;;33.63;17.03;;;9.50;99.90;;;;;;4985631;28;20482;-61
2023/04/08 02:46:55;;;;;;;21.23;12.87;;;9.50;99.90;;;;;;4986220;28;20839;-61
2023/04/08 02:49:21;;;;;;;20.20;11.60;;;9.60;99.90;;;;;;5001430;28;20873;-61
2023/04/08 02:51:49;;;;;;;21.00;10.93;;;9.70;99.90;;;;;;4980695;28;20492;-61
2023/04/08 02:54:16;;;;;;;16.03;10.80;;;9.70;99.90;;;;;;5003513;28;20493;-61
2023/04/08 02:56:43;;;;;;;20.50;11.13;;;9.70;99.90;;;;;;5000331;28;20498;-61
2023/04/08 02:59:09;;;;;;;26.07;11.37;;;9.70;99.90;;;;;;4985338;28;20504;-61
2023/04/08 03:01:36;;;;;;;25.47;15.63;;;9.70;99.90;;;;;;5006611;28;20473;-62
2023/04/08 03:04:03;;;;;;;26.17;13.53;;;9.80;99.90;;;;;;4986773;28;20542;-62
2023/04/08 03:06:30;;;;;;;30.83;13.60;;;9.80;99.90;;;;;;4999157;28;24600;-61
2023/04/08 03:08:58;;;;;;;21.07;13.10;;;9.70;99.90;;;;;;4999513;28;20480;-61
2023/04/08 03:11:25;;;;;;;23.97;13.90;;;9.70;99.90;;;;;;4996685;28;20495;-62
2023/04/08 03:13:51;;;;;;;27.90;13.30;;;9.70;99.90;;;;;;4999126;28;20694;-61
2023/04/08 03:16:18;;;;;;;24.10;13.10;;;9.80;99.90;;;;;;4997256;28;20505;-62
2023/04/08 03:18:45;;;;;;;20.87;12.60;;;9.80;99.90;;;;;;4981199;28;20480;-61
2023/04/08 03:21:11;;;;;;;28.10;14.20;;;9.80;99.90;;;;;;5012484;28;20480;-62
2023/04/08 03:23:38;;;;;;;29.97;19.27;;;9.90;99.90;;;;;;4985145;28;20547;-62
2023/04/08 03:26:06;;;;;;;22.93;14.60;;;9.90;99.90;;;;;;4995262;28;20991;-61
2023/04/08 03:28:33;;;;;;;36.67;17.83;;;9.90;99.90;;;;;;4993099;28;20690;-62
2023/04/08 03:30:59;;;;;;;26.70;15.60;;;9.90;99.90;;;;;;5005602;28;20492;-61
2023/04/08 03:33:26;;;;;;;19.53;12.30;;;9.90;99.90;;;;;;4979074;28;20953;-61
2023/04/08 03:35:54;;;;;;;20.40;9.90;;;9.90;99.90;;;;;;5006261;28;20506;-62
2023/04/08 03:38:21;;;;;;;12.50;9.33;;;9.90;99.90;;;;;;4989979;28;21338;-61
2023/04/08 03:40:47;;;;;;;15.97;10.87;;;9.90;99.80;;;;;;4998837;28;20585;-62
2023/04/08 03:43:16;;;;;;;21.10;12.67;;;9.80;99.90;;;;;;4992760;28;20486;-61
2023/04/08 03:45:42;;;;;;;18.80;11.07;;;9.80;99.90;;;;;;4980220;28;20490;-61
2023/04/08 03:48:09;;;;;;;19.70;13.07;;;9.80;99.90;;;;;;4991962;28;20480;-61
2023/04/08 03:50:35;;;;;;;29.93;14.50;;;9.80;99.90;;;;;;4968666;28;20620;-61
2023/04/08 03:53:02;;;;;;;19.20;13.47;;;9.90;99.90;;;;;;4991410;28;20481;-61
2023/04/08 03:55:29;;;;;;;26.70;15.40;;;9.80;99.90;;;;;;4977641;28;21025;-61
2023/04/08 03:57:55;;;;;;;23.73;11.43;;;9.90;99.90;;;;;;4978920;28;20897;-61
2023/04/08 04:00:24;;;;;;;18.73;12.27;;;9.90;99.90;;;;;;4967580;28;20497;-61
2023/04/08 04:02:50;;;;;;;22.60;12.33;;;9.90;99.90;;;;;;4990094;28;20488;-61
2023/04/08 04:05:17;;;;;;;20.50;11.00;;;9.90;99.80;;;;;;4989677;28;20512;-61
2023/04/08 04:07:44;;;;;;;19.97;11.53;;;9.90;99.90;;;;;;5002529;28;20481;-61
2023/04/08 04:10:11;;;;;;;24.57;15.13;;;9.80;99.90;;;;;;4979619;28;20477;-61
2023/04/08 04:12:38;;;;;;;27.10;12.60;;;9.80;99.90;;;;;;4999187;28;20486;-61
2023/04/08 04:15:05;;;;;;;21.07;13.10;;;9.80;99.90;;;;;;4988363;28;20486;-61
2023/04/08 04:17:34;;;;;;;33.23;17.90;;;9.70;99.90;;;;;;4985653;28;20499;-61
2023/04/08 04:20:03;;;;;;;23.93;12.43;;;9.80;99.90;;;;;;5002719;28;20668;-61
2023/04/08 04:22:29;;;;;;;28.90;17.20;;;9.80;99.90;;;;;;4971061;28;20478;-61
2023/04/08 04:24:56;;;;;;;23.17;13.53;;;9.80;99.90;;;;;;4985571;28;20535;-61
2023/04/08 04:27:23;;;;;;;28.60;12.80;;;9.80;99.90;;;;;;4993348;28;20489;-61
2023/04/08 04:29:49;;;;;;;22.87;11.67;;;9.80;99.90;;;;;;5005495;28;20554;-61
2023/04/08 04:32:16;;;;;;;21.37;11.70;;;9.90;99.90;;;;;;4998785;28;20485;-61
2023/04/08 04:34:44;;;;;;;27.60;12.97;;;9.90;99.90;;;;;;4985631;28;20754;-61
2023/04/08 04:37:11;;;;;;;20.70;13.00;;;10.00;99.80;;;;;;5009790;28;20496;-61
2023/04/08 04:39:37;;;;;;;31.63;16.60;;;10.00;99.70;;;;;;5009091;28;20486;-61
2023/04/08 04:42:05;;;;;;;29.87;13.57;;;10.00;99.60;;;;;;5002721;28;20492;-61
2023/04/08 04:44:32;;;;;;;29.57;15.27;;;10.00;99.50;;;;;;5000410;28;20879;-62
2023/04/08 04:46:58;;;;;;;21.83;13.03;;;10.00;99.40;;;;;;4987743;28;20497;-62
2023/04/08 04:49:25;;;;;;;24.00;13.93;;;10.10;99.50;;;;;;5013221;28;20492;-62
2023/04/08 04:51:53;;;;;;;20.10;13.53;;;10.10;99.50;;;;;;5007050;28;20486;-62
2023/04/08 04:54:20;;;;;;;16.10;9.77;;;10.00;99.60;;;;;;4994491;28;20875;-61
2023/04/08 04:56:47;;;;;;;26.23;13.07;;;10.10;99.60;;;;;;4984112;28;20937;-61
2023/04/08 04:59:13;;;;;;;18.63;11.77;;;10.10;99.50;;;;;;5004779;28;20469;-61
2023/04/08 05:01:40;;;;;;;19.30;12.20;;;10.10;99.40;;;;;;4987453;28;20484;-61
2023/04/08 05:04:07;;;;;;;17.70;10.17;;;10.10;99.40;;;;;;5004794;28;20653;-61
2023/04/08 05:06:34;;;;;;;27.97;15.03;;;10.10;99.40;;;;;;5012518;28;20556;-61
2023/04/08 05:09:02;;;;;;;21.53;13.30;;;10.10;99.50;;;;;;4982253;28;20490;-61
2023/04/08 05:11:29;;;;;;;27.30;13.63;;;10.00;99.90;;;;;;4974928;28;20627;-61
2023/04/08 05:13:55;;;;;;;23.50;13.73;;;10.00;99.90;;;;;;5015204;28;20481;-61
2023/04/08 05:16:22;;;;;;;20.57;13.57;;;10.00;99.80;;;;;;5007707;28;20480;-61
2023/04/08 05:18:49;;;;;;;31.37;13.33;;;10.10;99.90;;;;;;5003306;28;20480;-62
2023/04/08 05:21:15;;;;;;;25.07;12.93;;;10.10;99.90;;;;;;4999489;28;20538;-61
2023/04/08 05:23:42;;;;;;;25.23;14.70;;;10.10;99.90;;;;;;5022150;28;20504;-62
2023/04/08 05:26:10;;;;;;;27.40;12.60;;;10.10;99.90;;;;;;5003488;28;20492;-61
2023/04/08 05:28:37;;;;;;;29.17;17.03;;;10.10;99.90;;;;;;5008385;28;20546;-62
2023/04/08 05:31:03;;;;;;;22.57;11.50;;;10.10;99.90;;;;;;4994548;28;20515;-62
2023/04/08 05:33:30;;;;;;;31.10;14.80;;;10.10;99.90;;;;;;4998058;28;20493;-61
2023/04/08 05:35:57;;;;;;;27.73;13.93;;;10.00;99.90;;;;;;4998045;28;20485;-61
2023/04/08 05:38:23;;;;;;;176.27;66.20;;;10.00;99.90;;;;;;5027161;28;20488;-62
2023/04/08 05:40:50;;;;;;;42.00;17.93;;;10.10;99.90;;;;;;5014494;28;20519;-61
2023/04/08 05:43:18;;;;;;;20.90;12.00;;;10.10;99.90;;;;;;5005088;28;20486;-61
2023/04/08 05:45:45;;;;;;;23.30;13.20;;;10.10;99.90;;;;;;5010108;28;20493;-61
2023/04/08 05:48:11;;;;;;;36.57;14.93;;;10.20;99.90;;;;;;5007894;28;20485;-62
2023/04/08 05:50:38;;;;;;;34.93;18.13;;;10.20;99.90;;;;;;5001470;28;20492;-62
2023/04/08 05:53:05;;;;;;;28.10;14.70;;;10.30;99.90;;;;;;5022968;28;20469;-62
2023/04/08 05:55:31;;;;;;;37.00;17.07;;;10.30;99.90;;;;;;5001480;28;20485;-61
2023/04/08 05:57:58;;;;;;;25.43;13.57;;;10.30;99.90;;;;;;4998405;28;20484;-61
2023/04/08 06:00:26;;;;;;;34.07;14.63;;;10.40;99.90;;;;;;5008475;28;20706;-62
2023/04/08 06:02:53;;;;;;;28.30;12.23;;;10.40;99.90;;;;;;5004898;28;21082;-61
2023/04/08 06:05:20;;;;;;;23.23;12.83;;;10.40;99.90;;;;;;5023487;28;20485;-61
2023/04/08 06:07:46;;;;;;;26.70;14.53;;;10.50;99.90;;;;;;5014175;28;20892;-62
2023/04/08 06:10:13;;;;;;;27.10;12.83;;;10.50;99.90;;;;;;5016268;28;20461;-61
2023/04/08 06:12:40;;;;;;;34.50;17.00;;;10.40;99.90;;;;;;4993525;28;20478;-61
2023/04/08 06:15:08;;;;;;;20.17;12.27;;;10.50;99.90;;;;;;5020003;28;20485;-61
2023/04/08 06:17:37;;;;;;;39.57;15.43;;;10.50;99.90;;;;;;4980446;28;20577;-61
2023/04/08 06:20:06;;;;;;;20.83;12.70;;;10.50;99.90;;;;;;5015480;28;20504;-62
2023/04/08 06:22:33;;;;;;;31.73;16.90;;;10.60;99.90;;;;;;4983413;28;20482;-61
2023/04/08 06:24:59;;;;;;;35.90;16.23;;;10.60;99.90;;;;;;4993332;28;20485;-62
2023/04/08 06:27:26;;;;;;;35.07;17.57;;;10.60;99.90;;;;;;4992938;28;20705;-62
2023/04/08 06:29:54;;;;;;;36.40;17.60;;;10.70;99.90;;;;;;4959745;28;20914;-62
2023/04/08 06:32:20;;;;;;;43.93;15.97;;;10.70;99.90;;;;;;4988900;28;20481;-61
2023/04/08 06:34:49;;;;;;;31.53;17.50;;;10.80;99.90;;;;;;5007799;28;20647;-62
2023/04/08 06:37:16;;;;;;;28.37;16.33;;;10.90;99.90;;;;;;4979973;28;20822;-61
2023/04/08 06:39:43;;;;;;;30.67;17.27;;;11.00;99.90;;;;;;4993612;28;20549;-62
2023/04/08 06:42:09;;;;;;;28.93;15.27;;;11.00;99.90;;;;;;4986812;28;20488;-62
2023/04/08 06:44:36;;;;;;;33.93;20.43;;;11.00;99.90;;;;;;4975563;28;20716;-62
2023/04/08 06:47:03;;;;;;;42.30;17.70;;;11.10;99.90;;;;;;4986307;28;20488;-62
2023/04/08 06:49:29;;;;;;;37.77;21.30;;;11.20;99.90;;;;;;5005649;28;20520;-61
2023/04/08 06:51:57;;;;;;;30.60;18.57;;;11.30;99.90;;;;;;5001259;28;21177;-62
2023/04/08 06:54:25;;;;;;;30.10;15.77;;;11.30;99.90;;;;;;4982305;28;20611;-62
2023/04/08 06:56:51;;;;;;;35.30;16.77;;;11.30;99.90;;;;;;5020749;28;20912;-62
2023/04/08 06:59:18;;;;;;;43.40;17.00;;;11.40;99.90;;;;;;5007121;28;20489;-62
2023/04/08 07:01:45;;;;;;;35.40;16.40;;;11.50;99.90;;;;;;5009139;28;20480;-62
2023/04/08 07:04:12;;;;;;;28.07;15.73;;;11.60;99.90;;;;;;4999074;28;21073;-62
2023/04/08 07:06:38;;;;;;;41.47;20.53;;;11.60;99.80;;;;;;4996183;28;20480;-62
2023/04/08 07:09:06;;;;;;;40.73;17.10;;;11.70;99.80;;;;;;4998908;28;20489;-62
2023/04/08 07:11:33;;;;;;;41.03;20.70;;;11.80;99.90;;;;;;5004690;28;20797;-62
2023/04/08 07:14:00;;;;;;;40.60;20.13;;;11.80;99.90;;;;;;5003968;28;20473;-62
2023/04/08 07:16:26;;;;;;;48.23;18.90;;;11.90;99.50;;;;;;5013543;28;20495;-61
2023/04/08 07:18:53;;;;;;;34.53;18.97;;;11.90;99.50;;;;;;5004526;28;20499;-61
2023/04/08 07:21:20;;;;;;;26.77;15.77;;;11.90;99.50;;;;;;4995354;28;20519;-62
2023/04/08 07:23:47;;;;;;;40.80;17.10;;;12.00;99.90;;;;;;5014186;28;20542;-62
2023/04/08 07:26:15;;;;;;;31.07;17.03;;;12.00;99.60;;;;;;5002774;28;21192;-62
2023/04/08 07:28:42;;;;;;;43.87;21.80;;;12.00;99.40;;;;;;5001038;28;20900;-62
2023/04/08 07:31:13;;;;;;;43.30;18.67;;;12.00;99.30;;;;;;4972112;28;20497;-62
2023/04/08 07:33:40;;;;;;;34.73;19.93;;;12.10;99.40;;;;;;4989292;28;20532;-62
2023/04/08 07:36:08;;;;;;;49.77;19.87;;;12.10;99.00;;;;;;4987919;28;20489;-62
2023/04/08 07:38:35;;;;;;;39.40;21.30;;;12.10;99.00;;;;;;4996393;28;20492;-62
2023/04/08 07:41:02;;;;;;;40.00;20.07;;;12.20;99.00;;;;;;5018185;28;20489;-62
2023/04/08 07:43:31;;;;;;;43.63;22.63;;;12.10;98.40;;;;;;5005119;28;20485;-61
2023/04/08 07:46:02;;;;;;;41.10;20.47;;;12.20;98.80;;;;;;5007042;28;20483;-62
2023/04/08 07:48:29;;;;;;;40.30;21.77;;;12.10;98.80;;;;;;4988732;28;20513;-62
2023/04/08 07:50:56;;;;;;;51.60;20.97;;;12.20;98.40;;;;;;4990996;28;20481;-62
2023/04/08 07:53:23;;;;;;;33.43;18.43;;;12.20;98.50;;;;;;4985659;28;20495;-62
2023/04/08 07:55:50;;;;;;;38.27;19.53;;;12.20;98.50;;;;;;5005393;28;20460;-62
2023/04/08 07:58:17;;;;;;;51.17;19.23;;;14.90;99.60;;;;;;4998180;28;20605;-62
2023/04/08 08:00:45;;;;;;;40.40;20.23;;;12.30;98.50;;;;;;5002403;28;20538;-61
2023/04/08 08:03:12;;;;;;;38.20;19.80;;;12.20;98.70;;;;;;5009314;28;21207;-62
2023/04/08 08:05:38;;;;;;;55.17;21.97;;;12.30;98.50;;;;;;4999402;28;20907;-62
2023/04/08 08:08:06;;;;;;;34.53;18.77;;;12.30;98.30;;;;;;5003492;28;20884;-62
2023/04/08 08:10:33;;;;;;;38.70;21.67;;;12.40;98.50;;;;;;5001223;28;20562;-62
2023/04/08 08:13:00;;;;;;;43.23;19.73;;;12.40;98.10;;;;;;5018538;28;20488;-62
2023/04/08 08:15:26;;;;;;;39.67;21.07;;;12.50;98.50;;;;;;5002297;28;21001;-62
2023/04/08 08:17:54;;;;;;;38.53;21.17;;;12.60;98.30;;;;;;4990649;28;20896;-62
2023/04/08 08:20:21;;;;;;;41.37;17.23;;;12.80;98.40;;;;;;4992980;28;20881;-62
2023/04/08 08:22:47;;;;;;;39.00;21.53;;;12.90;98.10;;;;;;5022277;28;20562;-62
2023/04/08 08:25:14;;;;;;;32.13;18.57;;;13.00;97.90;;;;;;5002927;28;20506;-62
2023/04/08 08:27:41;;;;;;;56.37;22.43;;;13.10;97.90;;;;;;5002472;28;20492;-62
2023/04/08 08:30:09;;;;;;;28.80;18.57;;;13.20;97.80;;;;;;5003133;28;20503;-62
2023/04/08 08:32:36;;;;;;;39.07;20.43;;;13.20;97.20;;;;;;5010701;28;20497;-62
2023/04/08 08:35:04;;;;;;;37.97;18.90;;;13.20;97.30;;;;;;5003912;28;20976;-62
2023/04/08 08:37:31;;;;;;;39.47;23.73;;;13.20;97.30;;;;;;5011774;28;20527;-62
2023/04/08 08:39:58;;;;;;;34.17;20.30;;;13.10;97.20;;;;;;4993579;28;20479;-62
2023/04/08 08:42:25;;;;;;;43.97;20.27;;;13.30;96.90;;;;;;5004787;28;21035;-62
2023/04/08 08:44:52;;;;;;;41.67;21.23;;;13.20;96.70;;;;;;5011989;28;20487;-62
2023/04/08 08:47:19;;;;;;;36.23;18.30;;;13.20;97.40;;;;;;5011364;28;20484;-62
2023/04/08 08:49:47;;;;;;;42.03;19.83;;;13.20;97.00;;;;;;5008671;28;20843;-62
2023/04/08 08:52:17;;;;;;;38.97;21.67;;;13.20;96.80;;;;;;4998124;28;20727;-62
2023/04/08 08:54:44;;;;;;;32.67;19.63;;;13.30;97.00;;;;;;5000589;28;20491;-62
2023/04/08 08:57:17;;;;;;;44.93;21.50;;;13.30;96.50;;;;;;4989756;28;20551;-62
2023/04/08 08:59:46;;;;;;;30.60;17.83;;;13.30;97.00;;;;;;5001708;28;20495;-62
2023/04/08 09:02:27;;;;;;;40.13;20.90;;;13.20;96.20;;;;;;5014770;28;20489;-62
2023/04/08 09:05:06;;;;;;;32.73;19.60;;;13.30;96.50;;;;;;4994462;28;20479;-62
2023/04/08 09:07:39;;;;;;;34.70;20.70;;;13.30;96.50;;;;;;4990594;28;20507;-62
2023/04/08 09:10:07;;;;;;;35.17;20.97;;;13.40;97.30;;;;;;5022745;28;20524;-62
2023/04/08 09:12:34;;;;;;;37.13;22.93;;;13.70;97.60;;;;;;5013650;28;20594;-62
2023/04/08 09:15:04;;;;;;;34.77;18.90;;;14.10;97.10;;;;;;5004680;28;20473;-63
2023/04/08 09:17:32;;;;;;;33.30;20.10;;;14.40;97.00;;;;;;5000800;28;20496;-62
2023/04/08 09:20:10;;;;;;;35.60;20.30;;;15.00;96.70;;;;;;4997277;28;20490;-62
2023/04/08 09:22:55;;;;;;;46.33;24.43;;;15.30;96.30;;;;;;5004893;28;20477;-62
2023/04/08 09:25:26;;;;;;;35.97;17.57;;;15.70;95.10;;;;;;4985811;28;20574;-62
2023/04/08 09:27:53;;;;;;;33.83;19.73;;;15.90;94.60;;;;;;5004138;28;20477;-62
2023/04/08 09:30:22;;;;;;;30.67;18.83;;;16.10;95.20;;;;;;5005193;28;20500;-63
2023/04/08 09:32:50;;;;;;;34.60;18.13;;;16.00;94.20;;;;;;5006584;28;21123;-62
2023/04/08 09:35:18;;;;;;;31.70;18.33;;;16.10;94.50;;;;;;5003907;28;20478;-62
2023/04/08 09:37:45;;;;;;;31.53;18.37;;;16.10;94.20;;;;;;5019357;28;20820;-63
2023/04/08 09:40:15;;;;;;;41.03;18.73;;;16.40;94.30;;;;;;5021488;28;20492;-62
2023/04/08 09:42:47;;;;;;;31.97;20.27;;;16.60;94.70;;;;;;5020377;28;21254;-63
2023/04/08 09:45:15;;;;;;;41.33;20.37;;;16.50;92.70;;;;;;5023555;28;20496;-62
2023/04/08 09:47:52;;;;;;;43.80;23.37;;;16.60;94.00;;;;;;5010246;28;20488;-62
2023/04/08 09:50:23;;;;;;;32.40;18.90;;;16.60;93.10;;;;;;5001860;28;20488;-63
2023/04/08 09:52:53;;;;;;;36.70;18.50;;;16.60;93.00;;;;;;5016871;28;20501;-62
2023/04/08 09:55:25;;;;;;;30.87;21.30;;;16.50;92.80;;;;;;5008080;28;20485;-63
2023/04/08 09:57:55;;;;;;;32.10;19.43;;;16.50;93.40;;;;;;5021244;28;20492;-62
2023/04/08 10:00:29;;;;;;;27.47;18.13;;;16.50;92.70;;;;;;5005560;28;20500;-62
2023/04/08 10:03:00;;;;;;;31.40;19.97;;;16.50;93.00;;;;;;5014475;28;20584;-63
2023/04/08 10:05:28;;;;;;;37.37;20.20;;;16.60;92.70;;;;;;5012817;28;20488;-63
2023/04/08 10:07:56;;;;;;;28.30;18.50;;;;;;;;;;5015176;28;21009;-63
2023/04/08 10:10:25;;;;;;;31.30;18.87;;;;;;;;;;4992125;28;20570;-64
2023/04/08 10:12:55;;;;;;;32.03;18.73;;;16.70;92.50;;;;;;5010032;28;20488;-63
2023/04/08 10:15:23;;;;;;;29.53;18.97;;;16.60;91.10;;;;;;5001596;28;20496;-63
2023/04/08 10:17:50;;;;;;;36.07;20.40;;;16.60;92.10;;;;;;5000051;28;20874;-62
2023/04/08 10:20:41;;;;;;;28.57;19.80;;;16.80;92.00;;;;;;4991633;28;20562;-63
2023/04/08 10:23:09;;;;;;;46.53;20.17;;;17.10;93.10;;;;;;4989173;28;20490;-63
2023/04/08 10:25:38;;;;;;;31.83;19.13;;;17.40;92.60;;;;;;4999734;28;20594;-63
2023/04/08 10:28:25;;;;;;;30.20;18.87;;;18.00;92.20;;;;;;5004076;28;20853;-63
2023/04/08 10:30:53;;;;;;;28.30;18.70;;;18.40;92.30;;;;;;4956627;28;20737;-63
2023/04/08 10:33:23;;;;;;;25.87;18.10;;;18.70;89.30;;;;;;5000709;28;21278;-63
2023/04/08 10:35:53;;;;;;;31.13;18.30;;;19.10;90.50;;;;;;4984193;28;20514;-63
2023/04/08 10:38:20;;;;;;;35.40;21.70;;;19.40;91.30;;;;;;4968083;28;20921;-63
2023/04/08 10:40:50;;;;;;;39.20;22.00;;;19.40;88.70;;;;;;4994359;28;20486;-63
2023/04/08 10:43:17;;;;;;;33.83;20.53;;;19.10;87.10;;;;;;4991026;28;20508;-63
2023/04/08 10:45:44;;;;;;;32.07;19.13;;;18.80;87.20;;;;;;4987988;28;20497;-63
2023/04/08 10:48:13;;;;;;;25.47;18.20;;;18.70;88.30;;;;;;5006332;28;20481;-63
2023/04/08 10:50:40;;;;;;;34.53;19.03;;;18.20;85.00;;;;;;4981411;28;20720;-63
2023/04/08 10:53:07;;;;;;;29.93;20.90;;;18.00;85.30;;;;;;4986907;28;20894;-62
2023/04/08 10:55:34;;;;;;;32.50;21.03;;;17.80;84.70;;;;;;4981844;28;20891;-63
2023/04/08 10:58:07;;;;;;;30.43;20.23;;;17.50;85.60;;;;;;5006525;28;20568;-63
2023/04/08 11:00:36;;;;;;;33.70;22.70;;;17.40;85.40;;;;;;4974561;28;20565;-63
2023/04/08 11:03:04;;;;;;;28.87;20.17;;;17.30;86.00;;;;;;5008807;28;20559;-63
2023/04/08 11:05:31;;;;;;;33.03;23.07;;;17.20;87.80;;;;;;4958542;28;20487;-63
2023/04/08 11:07:58;;;;;;;32.87;19.33;;;17.40;90.20;;;;;;5007892;28;20490;-63
2023/04/08 11:10:25;;;;;;;26.83;18.93;;;17.80;88.50;;;;;;5000935;28;20904;-63
2023/04/08 11:12:54;;;;;;;25.80;18.70;;;18.10;87.90;;;;;;4989917;28;20681;-63
2023/04/08 11:15:23;;;;;;;29.47;19.70;;;18.30;83.80;;;;;;5008090;28;20483;-63
2023/04/08 11:17:52;;;;;;;31.70;18.53;;;18.30;83.30;;;;;;4982490;28;20642;-64
2023/04/08 11:20:19;;;;;;;26.10;18.50;;;18.30;85.40;;;;;;4988020;28;20511;-63
2023/04/08 11:22:47;;;;;;;29.20;19.67;;;18.20;82.70;;;;;;4998026;28;20493;-63
2023/04/08 11:25:14;;;;;;;34.63;20.73;;;18.10;84.60;;;;;;4977533;28;20499;-64
2023/04/08 11:27:41;;;;;;;28.43;19.20;;;18.20;84.50;;;;;;5000362;28;20545;-63
2023/04/08 11:30:10;;;;;;;26.33;18.60;;;18.10;85.40;;;;;;4967487;28;21176;-63
2023/04/08 11:32:39;;;;;;;33.23;20.20;;;18.10;83.80;;;;;;4990263;28;20507;-64
2023/04/08 11:35:06;;;;;;;27.87;19.53;;;18.00;83.50;;;;;;4994415;28;20485;-64
2023/04/08 11:37:38;;;;;;;32.80;22.50;;;17.80;82.70;;;;;;5013819;28;20515;-63
2023/04/08 11:40:08;;;;;;;26.80;19.17;;;17.70;84.20;;;;;;4996345;28;20613;-63
2023/04/08 11:42:34;;;;;;;32.77;23.30;;;17.60;85.90;;;;;;4991415;28;20480;-64
2023/04/08 11:45:01;;;;;;;24.83;18.20;;;17.50;84.30;;;;;;5001193;28;20498;-63
2023/04/08 11:47:32;;;;;;;33.00;21.10;;;17.40;82.40;;;;;;4992810;28;21089;-63
2023/04/08 11:50:00;;;;;;;28.20;19.63;;;17.30;83.30;;;;;;5006464;28;20555;-64
2023/04/08 11:52:41;;;;;;;30.40;18.77;;;17.30;83.70;;;;;;4985304;28;20491;-63
2023/04/08 11:55:09;;;;;;;26.67;19.50;;;17.20;83.40;;;;;;4999035;28;20708;-63
2023/04/08 11:57:36;;;;;;;29.53;21.83;;;17.10;82.40;;;;;;5005054;28;21014;-64
2023/04/08 12:00:04;;;;;;;22.70;17.77;;;17.00;82.30;;;;;;5004319;28;20909;-63
2023/04/08 12:02:31;;;;;;;26.50;18.80;;;16.90;81.50;;;;;;5013480;28;20576;-63
2023/04/08 12:04:57;;;;;;;22.40;16.40;;;16.80;82.20;;;;;;5002716;28;20479;-63
2023/04/08 12:07:26;;;;;;;26.73;18.40;;;16.70;82.20;;;;;;5012723;28;20492;-63
2023/04/08 12:09:52;;;;;;;26.37;17.90;;;16.70;82.40;;;;;;4990678;28;20989;-63
2023/04/08 12:12:19;;;;;;;28.10;17.37;;;16.60;83.90;;;;;;4999039;28;20496;-63
2023/04/08 12:14:45;;;;;;;26.73;17.40;;;16.50;84.40;;;;;;4975472;28;20491;-63
2023/04/08 12:17:12;;;;;;;26.83;19.10;;;16.60;86.70;;;;;;4995825;28;20484;-63
2023/04/08 12:19:39;;;;;;;31.33;20.20;;;16.70;85.00;;;;;;4999333;28;20842;-63
2023/04/08 12:22:05;;;;;;;22.23;17.70;;;16.60;85.30;;;;;;4999067;28;20989;-63
2023/04/08 12:24:34;;;;;;;31.20;20.90;;;16.80;85.90;;;;;;5012745;28;21016;-63
2023/04/08 12:27:03;;;;;;;23.23;17.83;;;16.90;85.20;;;;;;4969379;28;20823;-63
2023/04/08 12:29:30;;;;;;;27.73;19.67;;;17.00;85.30;;;;;;4999036;28;20878;-63
2023/04/08 12:31:57;;;;;;;26.30;17.03;;;17.20;85.40;;;;;;4993364;28;20528;-63
2023/04/08 12:34:24;;;;;;;21.07;16.27;;;17.50;83.00;;;;;;4985995;28;20952;-63